Time;durP1;ratioP1;P1;durP2;ratioP2;P2;SDS_P1;SDS_P2;PMS_P1;PMS_P2;Temp;Humidity;BMP_temperature;BMP_pressure;BME280_temperature;BME280_humidity;BME280_pressure;Samples;Min_cycle;Max_cycle;Signal;HPM_P1;HPM_P2
2023/07/30 00:02:01;;;;;;;;;;;;;;;25.85;37.93;99226.09;5037380;28;19915;-79
2023/07/30 00:04:27;;;;;;;;;;;;;;;25.89;36.70;99226.34;5055381;28;19908;-77
2023/07/30 00:06:52;;;;;;;;;;;;;;;25.85;37.32;99223.41;5037345;28;19999;-78
2023/07/30 00:09:17;;;;;;;;;;;;;;;25.77;37.82;99218.59;5055144;28;19905;-79
2023/07/30 00:11:42;;;;;;;;;;;;;;;25.75;37.91;99225.41;5055278;28;20305;-78
2023/07/30 00:14:08;;;;;;;;;;;;;;;25.67;37.81;99228.72;5037225;28;19916;-78
2023/07/30 00:16:33;;;;;;;;;;;;;;;25.56;36.80;99238.78;5055048;28;19920;-78
2023/07/30 00:18:58;;;;;;;;;;;;;;;25.39;38.29;99222.97;5055064;28;20337;-77
2023/07/30 00:21:23;;;;;;;;;;;;;;;25.29;38.98;99229.28;5037292;28;19909;-77
2023/07/30 00:23:49;;;;;;;;;;;;;;;25.20;37.88;99225.53;5054836;28;19965;-76
2023/07/30 00:26:14;;;;;;;;;;;;;;;25.08;38.19;99230.47;5054783;28;20366;-76
2023/07/30 00:28:39;;;;;;;;;;;;;;;25.05;38.52;99227.53;5036987;28;19908;-77
2023/07/30 00:31:05;;;;;;;;;;;;;;;24.98;37.90;99228.66;5054713;28;19930;-79
2023/07/30 00:33:30;;;;;;;;;;;;;;;24.89;37.58;99226.78;5054668;28;19912;-78
2023/07/30 00:35:55;;;;;;;;;;;;;;;24.68;40.42;99228.81;5054785;28;20286;-78
2023/07/30 00:38:20;;;;;;;;;;;;;;;24.56;38.64;99229.13;5054699;28;19916;-79
2023/07/30 00:40:46;;;;;;;;;;;;;;;24.50;38.70;99232.91;5055105;28;19908;-78
2023/07/30 00:43:11;;;;;;;;;;;;;;;24.40;40.57;99232.94;5036755;28;20313;-78
2023/07/30 00:45:38;;;;;;;;;;;;;;;24.29;39.77;99225.97;5054562;28;19948;-78
2023/07/30 00:48:03;;;;;;;;;;;;;;;24.31;39.27;99227.31;5054505;28;20428;-78
2023/07/30 00:50:29;;;;;;;;;;;;;;;24.33;39.07;99232.44;5053030;28;19913;-76
2023/07/30 00:52:54;;;;;;;;;;;;;;;24.29;41.09;99234.06;5054331;28;19908;-77
2023/07/30 00:55:19;;;;;;;;;;;;;;;24.21;41.12;99232.72;5036408;28;19912;-79
2023/07/30 00:57:45;;;;;;;;;;;;;;;24.21;39.96;99240.00;5054109;28;19919;-77
2023/07/30 01:00:11;;;;;;;;;;;;;;;24.20;39.95;99233.00;5054015;28;19917;-80
2023/07/30 01:02:36;;;;;;;;;;;;;;;24.27;39.17;99236.25;5054033;28;19909;-78
2023/07/30 01:05:03;;;;;;;;;;;;;;;24.25;39.74;99232.97;5036311;28;20521;-76
2023/07/30 01:07:29;;;;;;;;;;;;;;;24.25;40.58;99232.97;5054178;28;19909;-78
2023/07/30 01:09:54;;;;;;;;;;;;;;;24.23;40.33;99232.44;5036139;28;20397;-78
2023/07/30 01:12:20;;;;;;;;;;;;;;;24.15;40.06;99241.91;5053932;28;19913;-79
2023/07/30 01:14:47;;;;;;;;;;;;;;;24.08;41.55;99238.69;5054129;28;19909;-78
2023/07/30 01:17:12;;;;;;;;;;;;;;;24.00;40.57;99239.25;5035810;28;19935;-78
2023/07/30 01:19:37;;;;;;;;;;;;;;;23.93;41.11;99239.53;5053827;28;20351;-78
2023/07/30 01:22:03;;;;;;;;;;;;;;;23.89;41.40;99234.97;5053548;28;19905;-78
2023/07/30 01:24:28;;;;;;;;;;;;;;;23.85;41.38;99236.59;5035372;28;19966;-78
2023/07/30 01:27:01;;;;;;;;;;;;;;;23.83;41.57;99238.75;5035825;28;19909;-77
2023/07/30 01:29:32;;;;;;;;;;;;;;;23.83;41.33;99236.06;5035791;28;19908;-79
2023/07/30 01:32:00;;;;;;;;;;;;;;;23.79;41.27;99238.47;5053579;28;20373;-78
2023/07/30 01:34:27;;;;;;;;;;;;;;;23.65;42.53;99238.19;5053483;28;19962;-79
2023/07/30 01:36:53;;;;;;;;;;;;;;;23.62;40.32;99236.03;5053232;28;19912;-77
2023/07/30 01:39:19;;;;;;;;;;;;;;;23.55;40.86;99242.78;5053421;28;19963;-78
2023/07/30 01:41:44;;;;;;;;;;;;;;;23.55;41.05;99246.28;5053472;28;20337;-77
2023/07/30 01:44:09;;;;;;;;;;;;;;;23.51;41.63;99242.50;5053412;28;19917;-76
2023/07/30 01:46:34;;;;;;;;;;;;;;;23.46;41.84;99248.69;5053409;28;19909;-77
2023/07/30 01:49:00;;;;;;;;;;;;;;;23.41;41.35;99243.28;5035449;28;19958;-78
2023/07/30 01:51:25;;;;;;;;;;;;;;;23.43;41.84;99243.03;5053324;28;19908;-78
2023/07/30 01:53:50;;;;;;;;;;;;;;;23.44;42.28;99247.34;5053097;28;19908;-79
2023/07/30 01:56:15;;;;;;;;;;;;;;;23.48;40.83;99242.22;5053162;28;19967;-77
2023/07/30 01:58:41;;;;;;;;;;;;;;;23.55;41.48;99248.19;5053064;28;19920;-77
2023/07/30 02:01:06;;;;;;;;;;;;;;;23.59;41.50;99241.16;5052818;28;19916;-79
2023/07/30 02:03:31;;;;;;;;;;;;;;;23.50;42.04;99243.56;5053056;28;19913;-76
2023/07/30 02:05:56;;;;;;;;;;;;;;;23.50;40.88;99243.56;5035423;28;19908;-79
2023/07/30 02:08:22;;;;;;;;;;;;;;;23.52;41.62;99246.00;5052781;28;19909;-78
2023/07/30 02:10:57;;;;;;;;;;;;;;;23.50;41.26;99246.25;5052913;28;20313;-77
2023/07/30 02:13:22;;;;;;;;;;;;;;;23.53;41.72;99261.88;5052914;28;19908;-77
2023/07/30 02:15:48;;;;;;;;;;;;;;;23.45;42.61;99255.16;5034874;28;19932;-78
2023/07/30 02:18:13;;;;;;;;;;;;;;;23.48;42.38;99256.50;5052987;28;19930;-78
2023/07/30 02:20:38;;;;;;;;;;;;;;;23.41;41.14;99258.66;5052838;28;19916;-78
2023/07/30 02:23:03;;;;;;;;;;;;;;;23.31;40.87;99262.16;5052701;28;19908;-78
2023/07/30 02:25:29;;;;;;;;;;;;;;;23.15;43.03;99260.50;5052624;28;20317;-79
2023/07/30 02:27:54;;;;;;;;;;;;;;;23.02;41.88;99267.19;5052921;28;19909;-78
2023/07/30 02:30:19;;;;;;;;;;;;;;;22.97;42.55;99261.78;5065311;28;19935;-78
2023/07/30 02:32:45;;;;;;;;;;;;;;;22.87;43.37;99269.03;5064909;28;20396;-78
2023/07/30 02:35:10;;;;;;;;;;;;;;;22.82;41.86;99277.91;5052978;28;19909;-78
2023/07/30 02:37:35;;;;;;;;;;;;;;;22.72;43.17;99277.84;5052739;28;19923;-78
2023/07/30 02:40:01;;;;;;;;;;;;;;;22.63;43.30;99277.53;5052739;28;19948;-78
2023/07/30 02:42:27;;;;;;;;;;;;;;;22.54;44.36;99279.13;5052449;28;19986;-78
2023/07/30 02:44:52;;;;;;;;;;;;;;;22.49;43.92;99277.22;5052242;28;19908;-78
2023/07/30 02:47:17;;;;;;;;;;;;;;;22.45;42.43;99286.06;5034305;28;20034;-78
2023/07/30 02:49:42;;;;;;;;;;;;;;;22.46;42.93;99280.44;5052043;28;19909;-78
2023/07/30 02:52:08;;;;;;;;;;;;;;;22.52;42.85;99286.66;5034591;28;19915;-78
2023/07/30 02:54:33;;;;;;;;;;;;;;;22.51;43.56;99288.53;5052204;28;20293;-78
2023/07/30 02:56:58;;;;;;;;;;;;;;;22.44;43.85;99287.16;5052154;28;19913;-78
2023/07/30 02:59:23;;;;;;;;;;;;;;;22.40;42.41;99291.44;5051882;28;19923;-78
2023/07/30 03:01:49;;;;;;;;;;;;;;;22.31;43.59;99285.72;5051877;28;19912;-78
2023/07/30 03:04:14;;;;;;;;;;;;;;;22.29;43.17;99289.72;5051942;28;19912;-78
2023/07/30 03:06:39;;;;;;;;;;;;;;;22.29;43.32;99281.66;5051902;28;20003;-78
2023/07/30 03:09:04;;;;;;;;;;;;;;;22.27;44.75;99289.19;5051972;28;19908;-78
2023/07/30 03:11:30;;;;;;;;;;;;;;;22.25;44.11;99289.44;5051935;28;19912;-78
2023/07/30 03:13:55;;;;;;;;;;;;;;;22.26;43.67;99287.56;5051081;28;19909;-79
2023/07/30 03:16:20;;;;;;;;;;;;;;;22.26;43.74;99295.63;5052073;28;20016;-78
2023/07/30 03:18:45;;;;;;;;;;;;;;;22.28;43.16;99283.53;5051828;28;20313;-79
2023/07/30 03:21:11;;;;;;;;;;;;;;;22.27;42.68;99291.88;5052076;28;19962;-78
2023/07/30 03:23:36;;;;;;;;;;;;;;;22.26;43.88;99295.63;5051956;28;19952;-79
2023/07/30 03:26:01;;;;;;;;;;;;;;;22.26;44.69;99301.00;5051935;28;19934;-78
2023/07/30 03:28:26;;;;;;;;;;;;;;;22.24;43.44;99293.19;5051768;28;19908;-78
2023/07/30 03:30:52;;;;;;;;;;;;;;;22.24;44.82;99297.75;5033843;28;19909;-78
2023/07/30 03:33:17;;;;;;;;;;;;;;;22.22;44.16;99295.34;5051415;28;19909;-78
2023/07/30 03:35:42;;;;;;;;;;;;;;;22.24;43.40;99298.56;5051474;28;19909;-78
2023/07/30 03:38:08;;;;;;;;;;;;;;;22.27;44.41;99297.25;5051593;28;19996;-78
2023/07/30 03:40:33;;;;;;;;;;;;;;;22.27;42.87;99294.56;5051591;28;19916;-78
2023/07/30 03:42:58;;;;;;;;;;;;;;;22.23;45.21;99301.53;5051561;28;19915;-78
2023/07/30 03:45:23;;;;;;;;;;;;;;;22.22;43.15;99297.22;5033804;28;19916;-78
2023/07/30 03:47:48;;;;;;;;;;;;;;;22.19;44.83;99299.34;5051643;28;19909;-78
2023/07/30 03:50:14;;;;;;;;;;;;;;;22.16;44.71;99297.19;5051810;28;19908;-77
2023/07/30 03:52:39;;;;;;;;;;;;;;;22.18;44.89;99295.03;5051599;28;19974;-77
2023/07/30 03:55:04;;;;;;;;;;;;;;;22.22;43.92;99295.34;5034194;28;19916;-79
2023/07/30 03:57:30;;;;;;;;;;;;;;;22.22;43.33;99300.72;5051391;28;20452;-79
2023/07/30 03:59:55;;;;;;;;;;;;;;;22.23;44.66;99302.34;5051096;28;19916;-78
2023/07/30 04:02:20;;;;;;;;;;;;;;;22.24;44.41;99305.84;5051605;28;19962;-78
2023/07/30 04:04:48;;;;;;;;;;;;;;;22.22;45.02;99311.47;5051392;28;20373;-77
2023/07/30 04:07:14;;;;;;;;;;;;;;;22.28;43.91;99315.00;5051633;28;19928;-78
2023/07/30 04:09:39;;;;;;;;;;;;;;;22.27;45.45;99316.06;5051751;28;20340;-78
2023/07/30 04:12:05;;;;;;;;;;;;;;;22.29;44.60;99319.31;5051690;28;19984;-77
2023/07/30 04:14:30;;;;;;;;;;;;;;;22.33;44.50;99325.81;5033513;28;20308;-78
2023/07/30 04:16:55;;;;;;;;;;;;;;;22.39;43.80;99322.09;5051257;28;19959;-78
2023/07/30 04:19:20;;;;;;;;;;;;;;;22.43;42.54;99317.81;5051084;28;19916;-78
2023/07/30 04:21:46;;;;;;;;;;;;;;;22.44;43.85;99319.44;5051150;28;19905;-79
2023/07/30 04:24:11;;;;;;;;;;;;;;;22.43;43.18;99312.44;5033314;28;19963;-77
2023/07/30 04:26:36;;;;;;;;;;;;;;;22.43;43.79;99312.44;5037211;28;19915;-77
2023/07/30 04:29:01;;;;;;;;;;;;;;;22.46;42.83;99311.91;5055068;28;19908;-77
2023/07/30 04:31:27;;;;;;;;;;;;;;;22.48;43.94;99315.16;5054873;28;19913;-78
2023/07/30 04:33:52;;;;;;;;;;;;;;;22.51;43.38;99320.81;5054910;28;19950;-76
2023/07/30 04:36:17;;;;;;;;;;;;;;;22.59;44.04;99326.78;5036853;28;20377;-78
2023/07/30 04:38:42;;;;;;;;;;;;;;;22.69;43.54;99324.94;5054709;28;19912;-77
2023/07/30 04:41:08;;;;;;;;;;;;;;;22.75;42.60;99329.28;5055140;28;19909;-78
2023/07/30 04:43:33;;;;;;;;;;;;;;;22.71;44.43;99332.75;5054721;28;20301;-78
2023/07/30 04:45:58;;;;;;;;;;;;;;;22.74;42.35;99324.16;5054633;28;19909;-78
2023/07/30 04:48:23;;;;;;;;;;;;;;;22.77;44.23;99324.44;5054757;28;19915;-77
2023/07/30 04:50:49;;;;;;;;;;;;;;;22.79;44.62;99326.84;5054493;28;19909;-78
2023/07/30 04:53:14;;;;;;;;;;;;;;;22.78;44.11;99334.13;5054530;28;20450;-78
2023/07/30 04:55:39;;;;;;;;;;;;;;;22.88;43.64;99340.66;5054624;28;19909;-78
2023/07/30 04:58:04;;;;;;;;;;;;;;;22.98;42.95;99335.31;5036106;28;19991;-77
2023/07/30 05:00:30;;;;;;;;;;;;;;;23.11;43.45;99342.91;5054267;28;20363;-78
2023/07/30 05:02:55;;;;;;;;;;;;;;;23.21;43.27;99336.75;5036355;28;19913;-77
2023/07/30 05:05:20;;;;;;;;;;;;;;;23.29;42.99;99337.03;5036354;28;19908;-77
2023/07/30 05:07:45;;;;;;;;;;;;;;;23.33;43.68;99340.81;5054404;28;19956;-78
2023/07/30 05:10:11;;;;;;;;;;;;;;;23.36;42.68;99337.59;5054339;28;20392;-78
2023/07/30 05:12:36;;;;;;;;;;;;;;;23.39;43.52;99339.75;5054222;28;20066;-79
2023/07/30 05:15:02;;;;;;;;;;;;;;;23.43;42.97;99340.84;5055737;28;20415;-77
2023/07/30 05:17:27;;;;;;;;;;;;;;;23.52;43.21;99338.44;5054131;28;19909;-78
2023/07/30 05:19:53;;;;;;;;;;;;;;;23.65;42.25;99339.81;5054019;28;19978;-78
2023/07/30 05:22:18;;;;;;;;;;;;;;;23.74;43.05;99344.41;5054088;28;19909;-78
2023/07/30 05:24:43;;;;;;;;;;;;;;;23.82;42.38;99340.38;5036150;28;19981;-77
2023/07/30 05:27:08;;;;;;;;;;;;;;;23.92;42.20;99336.88;5053962;28;20003;-78
2023/07/30 05:29:34;;;;;;;;;;;;;;;24.01;41.20;99327.97;5035726;28;19909;-77
2023/07/30 05:31:59;;;;;;;;;;;;;;;24.08;40.79;99328.50;5053787;28;19967;-77
2023/07/30 05:34:24;;;;;;;;;;;;;;;24.14;41.73;99336.59;5053696;28;19908;-78
2023/07/30 05:36:49;;;;;;;;;;;;;;;24.18;42.11;99333.09;5052651;28;20371;-78
2023/07/30 05:39:15;;;;;;;;;;;;;;;24.22;41.32;99336.03;5053476;28;19912;-78
2023/07/30 05:41:40;;;;;;;;;;;;;;;24.32;41.29;99339.56;5053523;28;19909;-78
2023/07/30 05:44:05;;;;;;;;;;;;;;;24.41;40.93;99339.81;5053382;28;19908;-79
2023/07/30 05:46:30;;;;;;;;;;;;;;;24.47;41.25;99333.31;5053473;28;19962;-78
2023/07/30 05:48:56;;;;;;;;;;;;;;;24.53;41.00;99340.34;5053449;28;19908;-78
2023/07/30 05:51:21;;;;;;;;;;;;;;;24.59;41.07;99339.25;5053407;28;19908;-78
2023/07/30 05:53:46;;;;;;;;;;;;;;;24.62;40.22;99340.59;5053240;28;19916;-78
2023/07/30 05:56:13;;;;;;;;;;;;;;;24.64;40.80;99346.53;5053064;28;20389;-77
2023/07/30 05:58:38;;;;;;;;;;;;;;;24.70;41.65;99342.72;5035257;28;19917;-78
2023/07/30 06:01:03;;;;;;;;;;;;;;;24.78;41.34;99335.94;5053485;28;19909;-78
2023/07/30 06:03:29;;;;;;;;;;;;;;;24.86;41.04;99346.19;5035192;28;19915;-76
2023/07/30 06:05:54;;;;;;;;;;;;;;;24.91;41.43;99338.84;5052933;28;19909;-77
2023/07/30 06:08:19;;;;;;;;;;;;;;;24.97;41.07;99334.25;5052926;28;19920;-78
2023/07/30 06:10:46;;;;;;;;;;;;;;;25.02;40.50;99334.25;5034930;28;19901;-78
2023/07/30 06:13:11;;;;;;;;;;;;;;;25.08;40.66;99333.13;5052655;28;19948;-76
2023/07/30 06:15:36;;;;;;;;;;;;;;;25.16;40.85;99337.16;5052695;28;19944;-78
2023/07/30 06:18:03;;;;;;;;;;;;;;;25.21;40.38;99337.94;5052480;28;19912;-78
2023/07/30 06:20:28;;;;;;;;;;;;;;;25.26;40.59;99332.50;5052520;28;20304;-78
2023/07/30 06:22:53;;;;;;;;;;;;;;;25.35;40.58;99335.44;5052502;28;19999;-78
2023/07/30 06:25:19;;;;;;;;;;;;;;;25.45;40.58;99326.47;5052580;28;19915;-78
2023/07/30 06:27:44;;;;;;;;;;;;;;;25.51;40.18;99322.63;5034642;28;19996;-79
2023/07/30 06:30:09;;;;;;;;;;;;;;;25.56;39.73;99326.09;5052551;28;19916;-78
2023/07/30 06:32:35;;;;;;;;;;;;;;;25.63;39.53;99323.09;5052511;28;19915;-78
2023/07/30 06:35:00;;;;;;;;;;;;;;;25.69;40.25;99319.28;5034641;28;19913;-78
2023/07/30 06:37:25;;;;;;;;;;;;;;;25.75;40.42;99318.16;5052541;28;19912;-78
2023/07/30 06:39:50;;;;;;;;;;;;;;;25.85;39.39;99317.25;5052452;28;19915;-78
2023/07/30 06:42:16;;;;;;;;;;;;;;;25.91;40.08;99316.94;5052502;28;19909;-78
2023/07/30 06:44:41;;;;;;;;;;;;;;;25.99;39.55;99307.38;5052736;28;19909;-78
2023/07/30 06:47:06;;;;;;;;;;;;;;;26.10;39.48;99308.94;5052583;28;19943;-78
2023/07/30 06:49:34;;;;;;;;;;;;;;;26.18;39.40;99304.81;5052331;28;19916;-77
2023/07/30 06:51:59;;;;;;;;;;;;;;;26.29;38.88;99300.91;5034609;28;19908;-78
2023/07/30 06:54:24;;;;;;;;;;;;;;;26.35;39.09;99305.19;5051950;28;19904;-78
2023/07/30 06:56:49;;;;;;;;;;;;;;;26.44;39.36;99298.03;5033946;28;19913;-78
2023/07/30 06:59:15;;;;;;;;;;;;;;;26.54;38.94;99300.63;5051673;28;19923;-78
2023/07/30 07:01:40;;;;;;;;;;;;;;;26.62;38.81;99298.38;5051901;28;19913;-76
2023/07/30 07:04:05;;;;;;;;;;;;;;;26.69;37.92;99288.81;5052182;28;19987;-77
2023/07/30 07:06:30;;;;;;;;;;;;;;;26.79;37.49;99296.03;5034041;28;20389;-78
2023/07/30 07:08:56;;;;;;;;;;;;;;;26.86;37.84;99293.78;5034155;28;19915;-77
2023/07/30 07:11:21;;;;;;;;;;;;;;;26.97;37.66;99289.81;5051993;28;19958;-78
2023/07/30 07:13:46;;;;;;;;;;;;;;;27.04;37.67;99292.22;5051759;28;19913;-78
2023/07/30 07:16:12;;;;;;;;;;;;;;;27.10;37.68;99299.97;5051718;28;19963;-78
2023/07/30 07:18:37;;;;;;;;;;;;;;;27.18;37.58;99291.19;5033702;28;20408;-78
2023/07/30 07:21:02;;;;;;;;;;;;;;;27.24;37.65;99294.63;5051595;28;20321;-78
2023/07/30 07:23:27;;;;;;;;;;;;;;;27.31;37.57;99300.47;5051967;28;19909;-78
2023/07/30 07:25:53;;;;;;;;;;;;;;;27.37;37.43;99298.50;5033951;28;19948;-78
2023/07/30 07:28:18;;;;;;;;;;;;;;;27.45;37.32;99289.69;5051773;28;20301;-78
2023/07/30 07:30:44;;;;;;;;;;;;;;;27.51;37.62;99288.53;5034120;28;19999;-78
2023/07/30 07:33:12;;;;;;;;;;;;;;;27.58;37.64;99280.84;5052075;28;19912;-77
2023/07/30 07:35:37;;;;;;;;;;;;;;;27.65;37.42;99285.91;5051809;28;19909;-78
2023/07/30 07:38:03;;;;;;;;;;;;;;;27.69;37.05;99278.78;5051818;28;19943;-78
2023/07/30 07:40:28;;;;;;;;;;;;;;;27.73;36.76;99282.53;5051994;28;19909;-77
2023/07/30 07:42:54;;;;;;;;;;;;;;;27.79;36.48;99282.13;5033977;28;19908;-77
2023/07/30 07:45:19;;;;;;;;;;;;;;;27.85;37.04;99282.84;5051950;28;19915;-78
2023/07/30 07:47:45;;;;;;;;;;;;;;;27.90;36.78;99274.63;5034112;28;19908;-77
2023/07/30 07:50:10;;;;;;;;;;;;;;;27.94;36.52;99269.41;5051510;28;19908;-77
2023/07/30 07:52:35;;;;;;;;;;;;;;;28.02;36.66;99266.00;5051517;28;20286;-77
2023/07/30 07:55:01;;;;;;;;;;;;;;;28.14;35.77;99267.13;5033594;28;19908;-77
2023/07/30 07:57:26;;;;;;;;;;;;;;;28.21;35.99;99260.47;5033529;28;19942;-77
2023/07/30 07:59:51;;;;;;;;;;;;;;;28.27;35.92;99262.84;5052432;28;19924;-77
2023/07/30 08:02:17;;;;;;;;;;;;;;;28.34;35.58;99262.47;5055446;28;20003;-78
2023/07/30 08:04:42;;;;;;;;;;;;;;;28.42;35.84;99264.47;5055529;28;20278;-78
2023/07/30 08:07:07;;;;;;;;;;;;;;;28.48;35.78;99258.63;5037830;28;19912;-78
2023/07/30 08:09:32;;;;;;;;;;;;;;;28.56;35.46;99259.03;5055532;28;19935;-77
2023/07/30 08:11:59;;;;;;;;;;;;;;;28.67;35.79;99269.38;5055485;28;20358;-78
2023/07/30 08:14:24;;;;;;;;;;;;;;;28.75;34.91;99265.13;5055063;28;19915;-77
2023/07/30 08:16:49;;;;;;;;;;;;;;;28.81;34.68;99266.63;5055037;28;19912;-77
2023/07/30 08:19:14;;;;;;;;;;;;;;;28.94;34.72;99259.59;5055068;28;19944;-77
2023/07/30 08:21:39;;;;;;;;;;;;;;;28.99;34.06;99257.59;5054998;28;19980;-77
2023/07/30 08:24:05;;;;;;;;;;;;;;;29.08;34.21;99261.19;5037027;28;19908;-78
2023/07/30 08:26:31;;;;;;;;;;;;;;;29.17;33.66;99258.53;5054764;28;20373;-78
2023/07/30 08:28:56;;;;;;;;;;;;;;;29.29;33.91;99255.28;5054930;28;19908;-77
2023/07/30 08:31:21;;;;;;;;;;;;;;;29.44;34.06;99248.69;5055027;28;19964;-78
2023/07/30 08:33:47;;;;;;;;;;;;;;;29.54;34.12;99246.53;5037181;28;19952;-77
2023/07/30 08:36:12;;;;;;;;;;;;;;;29.67;33.63;99244.84;5054935;28;19913;-75
2023/07/30 08:38:37;;;;;;;;;;;;;;;29.82;33.74;99241.75;5054734;28;20290;-78
2023/07/30 08:41:02;;;;;;;;;;;;;;;29.94;33.67;99239.25;5054880;28;19961;-76
2023/07/30 08:43:28;;;;;;;;;;;;;;;30.11;33.24;99241.28;5056806;28;19909;-77
2023/07/30 08:45:54;;;;;;;;;;;;;;;30.24;33.34;99237.63;5067699;28;19908;-78
2023/07/30 08:48:19;;;;;;;;;;;;;;;30.38;32.64;99239.44;5063359;28;20352;-78
2023/07/30 08:50:45;;;;;;;;;;;;;;;30.46;32.17;99233.22;5054988;28;19912;-76
2023/07/30 08:53:11;;;;;;;;;;;;;;;30.46;32.27;99233.22;5054805;28;19912;-76
2023/07/30 08:55:38;;;;;;;;;;;;;;;30.49;32.14;99236.13;5055000;28;19909;-77
2023/07/30 08:58:04;;;;;;;;;;;;;;;30.59;32.03;99224.97;5054353;28;20008;-77
2023/07/30 09:00:34;;;;;;;;;;;;;;;30.75;32.36;99216.34;5055825;28;19920;-77
2023/07/30 09:03:00;;;;;;;;;;;;;;;30.87;31.42;99217.31;5054201;28;19908;-77
2023/07/30 09:05:29;;;;;;;;;;;;;;;31.00;31.73;99218.25;5036311;28;19909;-77
2023/07/30 09:07:54;;;;;;;;;;;;;;;31.11;30.56;99219.56;5054251;28;19908;-77
2023/07/30 09:10:19;;;;;;;;;;;;;;;31.14;31.14;99204.47;5036296;28;19915;-78
2023/07/30 09:12:45;;;;;;;;;;;;;;;31.31;31.04;99207.22;5052961;28;19909;-77
2023/07/30 09:15:10;;;;;;;;;;;;;;;31.47;30.56;99197.41;5053989;28;20362;-78
2023/07/30 09:17:35;;;;;;;;;;;;;;;31.72;30.59;99195.75;5054154;28;19909;-77
2023/07/30 09:20:03;;;;;;;;;;;;;;;31.90;30.53;99196.50;5053916;28;20374;-78
2023/07/30 09:22:40;;;;;;;;;;;;;;;32.06;30.07;99194.06;5053857;28;19959;-78
2023/07/30 09:25:05;;;;;;;;;;;;;;;32.29;30.13;99195.41;5054029;28;20397;-77
2023/07/30 09:27:31;;;;;;;;;;;;;;;32.46;29.89;99184.38;5035940;28;19912;-77
2023/07/30 09:29:57;;;;;;;;;;;;;;;32.71;29.82;99177.13;5053839;28;19954;-78
2023/07/30 09:32:30;;;;;;;;;;;;;;;32.99;28.83;99179.34;5035851;28;19936;-77
2023/07/30 09:34:55;;;;;;;;;;;;;;;33.18;29.12;99166.78;5054072;28;19913;-77
2023/07/30 09:37:20;;;;;;;;;;;;;;;33.45;29.15;99165.44;5053352;28;20361;-77
2023/07/30 09:39:47;;;;;;;;;;;;;;;33.63;28.79;99163.28;5053365;28;20383;-77
2023/07/30 09:42:12;;;;;;;;;;;;;;;33.80;28.30;99160.34;5053253;28;19909;-77
2023/07/30 09:44:39;;;;;;;;;;;;;;;33.98;27.61;99151.91;5053222;28;19962;-78
2023/07/30 09:47:06;;;;;;;;;;;;;;;34.17;28.00;99154.88;5053247;28;19920;-78
2023/07/30 09:49:31;;;;;;;;;;;;;;;34.38;27.52;99152.84;5053055;28;19913;-77
2023/07/30 09:51:57;;;;;;;;;;;;;;;34.56;27.77;99145.16;5053381;28;19947;-78
2023/07/30 09:54:23;;;;;;;;;;;;;;;34.63;27.00;99139.88;5051733;28;19935;-78
2023/07/30 09:56:48;;;;;;;;;;;;;;;34.77;25.18;99130.47;5053339;28;20401;-78
2023/07/30 09:59:13;;;;;;;;;;;;;;;34.90;25.79;99129.28;5035080;28;19917;-77
2023/07/30 10:01:44;;;;;;;;;;;;;;;35.10;25.76;99122.03;5053064;28;19915;-79
2023/07/30 10:04:09;;;;;;;;;;;;;;;35.31;26.44;99117.09;5052956;28;20274;-77
2023/07/30 10:06:38;;;;;;;;;;;;;;;35.42;25.12;99111.91;5052985;28;19939;-77
2023/07/30 10:09:04;;;;;;;;;;;;;;;35.60;25.59;99113.16;5052953;28;19909;-77
2023/07/30 10:11:30;;;;;;;;;;;;;;;35.74;25.62;99112.72;5052748;28;19913;-78
2023/07/30 10:13:56;;;;;;;;;;;;;;;35.84;24.65;99109.47;5052880;28;19909;-78
2023/07/30 10:16:28;;;;;;;;;;;;;;;35.98;25.09;99104.28;5052748;28;20386;-79
2023/07/30 10:19:00;;;;;;;;;;;;;;;36.22;24.68;99106.00;5034935;28;19912;-78
2023/07/30 10:21:26;;;;;;;;;;;;;;;36.39;24.72;99107.56;5035219;28;19909;-77
2023/07/30 10:23:59;;;;;;;;;;;;;;;36.39;24.89;99105.63;5034503;28;19908;-77
2023/07/30 10:26:28;;;;;;;;;;;;;;;36.55;23.74;99097.34;5052549;28;19944;-77
2023/07/30 10:29:09;;;;;;;;;;;;;;;36.65;22.57;99096.75;5034565;28;19912;-76
2023/07/30 10:31:54;;;;;;;;;;;;;;;36.71;23.60;99089.00;5052397;28;19951;-76
2023/07/30 10:34:20;;;;;;;;;;;;;;;36.91;23.49;99088.66;5052714;28;19905;-77
2023/07/30 10:36:46;;;;;;;;;;;;;;;37.10;23.24;99082.31;5034741;28;20370;-77
2023/07/30 10:39:11;;;;;;;;;;;;;;;37.12;22.68;99079.19;5052146;28;19915;-76
2023/07/30 10:41:37;;;;;;;;;;;;;;;37.17;23.26;99076.97;5052221;28;19909;-77
2023/07/30 10:44:02;;;;;;;;;;;;;;;37.29;21.82;99073.25;5052309;28;19909;-76
2023/07/30 10:46:28;;;;;;;;;;;;;;;37.32;22.94;99071.72;5052183;28;19916;-76
2023/07/30 10:48:54;;;;;;;;;;;;;;;37.43;22.28;99069.94;5034579;28;19908;-76
2023/07/30 10:51:23;;;;;;;;;;;;;;;37.51;22.21;99074.41;5034375;28;19920;-78
2023/07/30 10:53:49;;;;;;;;;;;;;;;37.72;20.99;99072.00;5052119;28;20313;-79
2023/07/30 10:56:21;;;;;;;;;;;;;;;37.98;20.42;99064.94;5052025;28;19915;-76
2023/07/30 10:58:51;;;;;;;;;;;;;;;38.05;21.50;99059.50;5023357;28;20004;-77
2023/07/30 11:01:16;;;;;;;;;;;;;;;38.24;20.88;99053.09;5012443;28;20410;-78
2023/07/30 11:03:41;;;;;;;;;;;;;;;38.32;20.43;99055.56;5012740;28;19909;-77
2023/07/30 11:06:07;;;;;;;;;;;;;;;38.40;19.87;99054.47;5013039;28;19910;-78
2023/07/30 11:08:34;;;;;;;;;;;;;;;38.54;20.56;99047.53;5012624;28;19996;-76
2023/07/30 11:11:00;;;;;;;;;;;;;;;38.61;21.09;99051.19;5012601;28;20452;-76
2023/07/30 11:13:25;;;;;;;;;;;;;;;38.58;20.53;99043.66;5012339;28;19909;-78
2023/07/30 11:15:51;;;;;;;;;;;;;;;38.69;20.26;99041.84;5011046;28;19916;-78
2023/07/30 11:18:16;;;;;;;;;;;;;;;38.82;20.45;99034.09;5012028;28;20396;-76
2023/07/30 11:20:41;;;;;;;;;;;;;;;38.88;21.08;99043.63;5012145;28;19909;-77
2023/07/30 11:23:18;;;;;;;;;;;;;;;38.95;21.01;99038.19;5011976;28;20325;-77
2023/07/30 11:25:48;;;;;;;;;;;;;;;39.04;21.75;99038.69;5011934;28;20312;-75
2023/07/30 11:28:13;;;;;;;;;;;;;;;39.06;21.05;99033.56;5012133;28;19909;-76
2023/07/30 11:30:39;;;;;;;;;;;;;;;39.11;20.01;99034.41;5012093;28;19932;-76
2023/07/30 11:33:04;;;;;;;;;;;;;;;39.22;20.10;99032.53;5011939;28;20406;-77
2023/07/30 11:35:30;;;;;;;;;;;;;;;39.24;20.78;99035.69;5009917;28;19909;-77
2023/07/30 11:37:57;;;;;;;;;;;;;;;39.34;19.48;99027.50;5011825;28;19913;-77
2023/07/30 11:40:22;;;;;;;;;;;;;;;39.49;19.41;99025.69;5012054;28;19916;-78
2023/07/30 11:42:48;;;;;;;;;;;;;;;39.59;19.00;99021.41;5011995;28;19909;-77
2023/07/30 11:45:23;;;;;;;;;;;;;;;39.75;20.17;99018.34;5011810;28;19909;-79
2023/07/30 11:47:48;;;;;;;;;;;;;;;39.75;18.86;99001.78;5011922;28;19909;-77
2023/07/30 11:50:14;;;;;;;;;;;;;;;39.75;19.56;98999.00;5011654;28;20401;-77
2023/07/30 11:52:59;;;;;;;;;;;;;;;39.79;19.86;99000.59;5011964;28;19910;-77
2023/07/30 11:55:36;;;;;;;;;;;;;;;39.67;19.21;98990.69;5011360;28;19915;-77
2023/07/30 11:58:01;;;;;;;;;;;;;;;39.74;19.00;98987.16;5014469;28;19913;-78
2023/07/30 12:00:27;;;;;;;;;;;;;;;39.93;18.81;98995.19;5051311;28;19912;-76
2023/07/30 12:02:52;;;;;;;;;;;;;;;40.05;18.14;98979.44;5051030;28;19909;-78
2023/07/30 12:05:18;;;;;;;;;;;;;;;39.98;19.40;98975.47;5051756;28;19913;-76
2023/07/30 12:07:43;;;;;;;;;;;;;;;39.89;19.63;98979.72;5051435;28;19909;-78
2023/07/30 12:10:13;;;;;;;;;;;;;;;39.96;19.01;98977.03;5051410;28;20397;-79
2023/07/30 12:12:45;;;;;;;;;;;;;;;39.86;18.63;98975.75;5051231;28;20409;-77
2023/07/30 12:15:11;;;;;;;;;;;;;;;40.01;17.66;98960.84;5051093;28;19958;-78
2023/07/30 12:17:36;;;;;;;;;;;;;;;40.00;18.20;98961.25;5051163;28;19963;-79
2023/07/30 12:20:06;;;;;;;;;;;;;;;40.09;19.54;98963.66;5051223;28;19917;-78
2023/07/30 12:22:31;;;;;;;;;;;;;;;40.12;19.12;98958.13;5051110;28;19912;-78
2023/07/30 12:24:56;;;;;;;;;;;;;;;40.18;18.89;98951.06;5051101;28;19919;-77
2023/07/30 12:27:22;;;;;;;;;;;;;;;40.08;18.99;98949.03;5051019;28;20374;-78
2023/07/30 12:29:47;;;;;;;;;;;;;;;40.02;18.12;98945.06;5051035;28;19947;-78
2023/07/30 12:32:12;;;;;;;;;;;;;;;40.18;18.12;98937.22;5051033;28;20304;-76
2023/07/30 12:34:38;;;;;;;;;;;;;;;40.26;18.74;98936.06;5033891;28;19905;-77
2023/07/30 12:37:03;;;;;;;;;;;;;;;40.23;17.62;98938.81;5033005;28;19913;-77
2023/07/30 12:39:28;;;;;;;;;;;;;;;40.19;17.81;98938.81;5050843;28;19971;-78
2023/07/30 12:41:53;;;;;;;;;;;;;;;40.34;17.42;98928.56;5033085;28;20321;-79